Time;durP1;ratioP1;P1;durP2;ratioP2;P2;SDS_P1;SDS_P2;PMS_P1;PMS_P2;Temp;Humidity;BMP_temperature;BMP_pressure;BME280_temperature;BME280_humidity;BME280_pressure;Samples;Min_cycle;Max_cycle;Signal;HPM_P1;HPM_P2
2021/09/22 00:00:41;;;;;;;9.13;6.28;;;13.10;82.00;;;;;;2069687;28;20057;-95
2021/09/22 00:01:42;;;;;;;8.63;6.25;;;13.10;82.00;;;;;;2074013;28;20050;-96
2021/09/22 00:02:43;;;;;;;9.23;6.03;;;13.10;82.70;;;;;;2067200;28;20026;-95
2021/09/22 00:03:44;;;;;;;9.43;6.22;;;13.00;82.10;;;;;;2053903;28;20107;-95
2021/09/22 00:04:44;;;;;;;10.27;6.32;;;13.10;82.20;;;;;;2050568;28;20126;-96
2021/09/22 00:05:45;;;;;;;9.55;6.15;;;13.10;82.20;;;;;;2067666;28;20539;-96
2021/09/22 00:06:45;;;;;;;8.95;6.60;;;13.00;82.20;;;;;;2074455;28;20041;-96
2021/09/22 00:07:46;;;;;;;9.27;6.10;;;13.00;82.30;;;;;;2065874;28;20129;-94
2021/09/22 00:08:47;;;;;;;8.80;6.07;;;13.00;82.30;;;;;;2050716;28;20053;-95
2021/09/22 00:09:47;;;;;;;10.10;6.63;;;13.00;82.30;;;;;;2065222;28;20563;-95
2021/09/22 00:10:48;;;;;;;9.75;6.70;;;13.00;82.40;;;;;;2065873;28;20057;-95
2021/09/22 00:11:49;;;;;;;9.23;5.93;;;13.00;82.40;;;;;;2049345;29;20532;-95
2021/09/22 00:12:50;;;;;;;8.77;6.57;;;13.00;82.40;;;;;;2050587;28;20402;-95
2021/09/22 00:13:50;;;;;;;9.48;6.50;;;13.00;83.10;;;;;;2064546;28;20049;-95
2021/09/22 00:14:51;;;;;;;9.30;6.78;;;13.00;82.60;;;;;;2049702;28;20133;-95
2021/09/22 00:15:52;;;;;;;8.68;6.20;;;12.90;82.50;;;;;;2057109;28;20066;-96
2021/09/22 00:16:53;;;;;;;10.13;6.90;;;12.90;82.50;;;;;;2065605;28;20144;-94
2021/09/22 00:17:54;;;;;;;9.88;6.45;;;12.90;82.60;;;;;;2071528;28;20049;-95
2021/09/22 00:18:55;;;;;;;8.40;6.43;;;12.90;82.70;;;;;;2065841;28;20066;-95
2021/09/22 00:19:56;;;;;;;9.57;6.80;;;12.90;82.70;;;;;;2061270;28;20046;-94
2021/09/22 00:20:57;;;;;;;8.50;6.32;;;12.90;82.70;;;;;;2049350;28;20261;-94
2021/09/22 00:21:57;;;;;;;9.80;7.15;;;12.90;82.70;;;;;;2041197;28;20067;-94
2021/09/22 00:22:58;;;;;;;9.18;6.70;;;12.90;82.80;;;;;;2049206;29;20027;-94
2021/09/22 00:23:59;;;;;;;10.00;7.20;;;12.90;82.90;;;;;;2049993;28;20138;-95
2021/09/22 00:24:59;;;;;;;9.63;6.65;;;12.90;82.90;;;;;;2049371;29;20039;-96
2021/09/22 00:26:00;;;;;;;10.85;6.57;;;12.90;82.90;;;;;;2033837;29;20119;-94
2021/09/22 00:27:01;;;;;;;9.25;6.88;;;12.90;83.00;;;;;;2040455;29;20071;-94
2021/09/22 00:28:03;;;;;;;9.25;6.75;;;12.90;83.00;;;;;;2049487;28;20066;-95
2021/09/22 00:29:04;;;;;;;9.23;7.03;;;12.80;83.00;;;;;;2050222;28;20063;-95
2021/09/22 00:30:05;;;;;;;9.77;6.80;;;12.80;83.00;;;;;;2058585;28;20122;-95
2021/09/22 00:31:07;;;;;;;11.00;7.10;;;12.80;83.00;;;;;;2056639;28;20042;-96
2021/09/22 00:32:08;;;;;;;10.52;7.40;;;12.80;83.10;;;;;;2047302;28;20039;-95
2021/09/22 00:33:08;;;;;;;9.50;6.72;;;12.80;83.10;;;;;;2045356;28;20039;-95
2021/09/22 00:34:09;;;;;;;10.52;6.82;;;12.80;83.10;;;;;;2041557;29;20048;-95
2021/09/22 00:35:10;;;;;;;10.40;6.97;;;12.80;83.20;;;;;;2041280;29;20054;-96
2021/09/22 00:36:11;;;;;;;8.98;6.60;;;12.80;83.20;;;;;;2033903;29;20051;-95
2021/09/22 00:37:12;;;;;;;9.23;6.53;;;12.70;83.20;;;;;;2051187;28;20406;-95
2021/09/22 00:38:12;;;;;;;9.10;6.32;;;12.80;83.20;;;;;;2049308;29;20039;-94
2021/09/22 00:39:13;;;;;;;9.18;6.28;;;12.80;83.80;;;;;;2049805;28;20402;-95
2021/09/22 00:40:14;;;;;;;9.05;6.43;;;12.80;83.20;;;;;;2065481;28;20049;-95
2021/09/22 00:41:15;;;;;;;8.98;6.53;;;12.80;83.20;;;;;;2057495;28;20067;-95
2021/09/22 00:42:16;;;;;;;9.52;6.72;;;12.80;83.20;;;;;;2056387;28;20461;-96
2021/09/22 00:43:17;;;;;;;9.68;6.88;;;12.80;83.30;;;;;;2051847;28;20043;-94
2021/09/22 00:44:18;;;;;;;8.88;6.47;;;12.80;83.30;;;;;;2049947;28;20043;-95
2021/09/22 00:45:18;;;;;;;8.23;5.95;;;12.80;83.30;;;;;;2051542;28;20072;-95
2021/09/22 00:46:19;;;;;;;9.00;5.88;;;12.80;83.20;;;;;;2051771;28;20083;-95
2021/09/22 00:47:20;;;;;;;8.70;6.65;;;12.80;83.40;;;;;;2051459;28;20016;-96
2021/09/22 00:48:21;;;;;;;9.35;6.70;;;12.80;83.30;;;;;;2059525;28;20031;-96
2021/09/22 00:49:22;;;;;;;9.55;6.60;;;12.80;83.30;;;;;;2044516;29;20036;-94
2021/09/22 00:50:23;;;;;;;9.27;6.88;;;12.80;83.30;;;;;;2050454;28;20070;-94
2021/09/22 00:51:24;;;;;;;8.85;6.72;;;12.80;83.30;;;;;;2066001;28;20102;-94
2021/09/22 00:52:24;;;;;;;9.52;6.93;;;12.80;83.20;;;;;;2049926;28;20139;-95
2021/09/22 00:53:25;;;;;;;9.07;6.63;;;12.80;83.20;;;;;;2050876;29;20201;-96
2021/09/22 00:54:26;;;;;;;9.85;6.60;;;12.80;83.20;;;;;;2051259;29;20126;-96
2021/09/22 00:55:27;;;;;;;8.65;6.68;;;12.70;83.20;;;;;;2049479;29;20121;-96
2021/09/22 00:56:28;;;;;;;9.07;6.85;;;12.70;83.30;;;;;;2051536;28;20058;-96
2021/09/22 00:57:29;;;;;;;10.10;7.40;;;12.70;83.40;;;;;;2057808;28;20039;-95
2021/09/22 00:58:30;;;;;;;9.68;7.07;;;12.70;83.40;;;;;;2050568;28;20055;-95
2021/09/22 00:59:31;;;;;;;8.52;6.75;;;12.70;83.40;;;;;;2057979;28;20112;-95
2021/09/22 01:00:32;;;;;;;10.10;7.05;;;12.70;83.40;;;;;;2049380;28;20094;-96
2021/09/22 01:01:33;;;;;;;9.38;6.93;;;12.70;83.50;;;;;;2041734;29;20406;-95
2021/09/22 01:02:34;;;;;;;9.27;6.97;;;12.70;83.50;;;;;;2057828;28;20045;-96
2021/09/22 01:03:34;;;;;;;9.18;6.80;;;12.70;83.50;;;;;;2057123;28;20051;-95
2021/09/22 01:04:37;;;;;;;10.00;7.03;;;12.70;83.50;;;;;;2058346;28;20454;-95
2021/09/22 01:05:38;;;;;;;8.68;6.75;;;12.70;83.60;;;;;;2066434;28;20081;-95
2021/09/22 01:06:39;;;;;;;10.07;7.20;;;12.70;83.60;;;;;;2058830;28;20110;-96
2021/09/22 01:07:40;;;;;;;9.65;7.30;;;12.60;83.60;;;;;;2052023;28;20529;-95
2021/09/22 01:08:41;;;;;;;10.35;7.20;;;12.70;83.70;;;;;;2044623;29;20585;-95
2021/09/22 01:09:42;;;;;;;9.27;6.80;;;12.60;83.70;;;;;;2054963;29;20437;-96
2021/09/22 01:10:47;;;;;;;9.75;7.50;;;12.60;83.70;;;;;;2058339;28;20516;-94
2021/09/22 01:11:48;;;;;;;9.57;7.38;;;12.60;83.80;;;;;;2065443;28;20050;-94
2021/09/22 01:12:49;;;;;;;9.63;7.18;;;12.60;83.80;;;;;;2049176;29;20043;-96
2021/09/22 01:13:51;;;;;;;10.75;7.65;;;12.60;83.90;;;;;;2041521;28;20131;-95
2021/09/22 01:14:51;;;;;;;9.32;7.30;;;12.60;83.90;;;;;;2048931;29;20158;-94
2021/09/22 01:15:52;;;;;;;11.40;7.72;;;12.60;83.90;;;;;;2048980;28;20047;-96
2021/09/22 01:16:53;;;;;;;10.13;7.20;;;12.60;84.00;;;;;;2051297;28;20023;-93
2021/09/22 01:17:54;;;;;;;11.80;7.93;;;12.60;84.00;;;;;;2033681;28;20048;-95
2021/09/22 01:18:55;;;;;;;9.57;7.30;;;12.60;84.00;;;;;;2049129;28;20035;-94
2021/09/22 01:20:02;;;;;;;9.52;7.38;;;12.60;84.00;;;;;;2041196;29;20126;-95
2021/09/22 01:21:03;;;;;;;10.88;7.32;;;12.60;84.00;;;;;;2049319;28;20450;-95
2021/09/22 01:22:04;;;;;;;10.98;7.72;;;12.60;84.00;;;;;;2050379;28;20050;-95
2021/09/22 01:23:06;;;;;;;10.13;7.72;;;12.60;84.10;;;;;;2057165;28;20035;-95
2021/09/22 01:24:07;;;;;;;10.65;7.57;;;12.50;84.10;;;;;;2056319;28;20039;-96
2021/09/22 01:25:11;;;;;;;9.63;7.30;;;12.50;84.10;;;;;;2049190;28;20035;-95
2021/09/22 01:26:12;;;;;;;11.18;7.63;;;12.50;84.20;;;;;;2057736;28;20126;-95
2021/09/22 01:27:13;;;;;;;12.40;7.85;;;12.50;84.20;;;;;;2049223;28;20043;-96
2021/09/22 01:28:17;;;;;;;10.50;7.88;;;12.50;84.20;;;;;;2041143;29;20074;-95
2021/09/22 01:29:18;;;;;;;10.15;7.68;;;12.50;84.20;;;;;;2057043;28;20045;-95
2021/09/22 01:30:19;;;;;;;10.45;7.88;;;12.50;84.30;;;;;;2049115;28;20141;-95
2021/09/22 01:31:19;;;;;;;9.50;7.47;;;12.50;84.30;;;;;;2049393;28;20059;-95
2021/09/22 01:32:22;;;;;;;11.10;7.90;;;12.50;84.30;;;;;;2054884;28;20524;-95
2021/09/22 01:33:24;;;;;;;9.80;7.53;;;12.50;84.30;;;;;;2036013;29;20074;-95
2021/09/22 01:34:24;;;;;;;10.95;7.55;;;12.50;84.40;;;;;;2042207;28;20166;-96
2021/09/22 01:35:26;;;;;;;10.48;7.82;;;12.50;84.40;;;;;;2050867;28;20197;-96
2021/09/22 01:36:27;;;;;;;10.10;7.53;;;12.50;84.40;;;;;;2036051;29;20055;-95
2021/09/22 01:37:27;;;;;;;11.43;8.15;;;12.40;84.30;;;;;;2033497;29;20048;-95
2021/09/22 01:38:29;;;;;;;10.93;7.82;;;12.40;84.40;;;;;;2038910;29;20046;-95
2021/09/22 01:39:40;;;;;;;9.90;7.82;;;12.40;84.50;;;;;;2045152;28;20433;-94
2021/09/22 01:41:01;;;;;;;10.05;7.82;;;12.40;84.60;;;;;;2048807;28;20046;-95
2021/09/22 01:42:01;;;;;;;10.15;8.23;;;12.40;84.60;;;;;;2051150;28;20130;-95
2021/09/22 01:43:04;;;;;;;10.30;7.60;;;12.40;84.60;;;;;;2056139;28;20046;-95
2021/09/22 01:44:05;;;;;;;11.45;7.97;;;12.40;84.70;;;;;;2041976;29;20031;-95
2021/09/22 01:45:09;;;;;;;10.93;7.43;;;12.40;84.70;;;;;;2037051;29;20041;-96
2021/09/22 01:46:11;;;;;;;10.65;7.47;;;12.40;84.70;;;;;;2034405;28;20387;-95
2021/09/22 01:47:11;;;;;;;10.75;7.78;;;12.40;84.70;;;;;;2048787;28;20086;-95
2021/09/22 01:48:12;;;;;;;10.55;7.75;;;12.40;84.70;;;;;;2063778;28;20520;-95
2021/09/22 01:49:22;;;;;;;9.98;7.63;;;12.40;84.70;;;;;;2066793;28;20049;-95
2021/09/22 01:50:23;;;;;;;10.43;7.77;;;12.40;84.70;;;;;;2057594;28;20074;-96
2021/09/22 01:51:23;;;;;;;10.65;7.47;;;12.40;84.60;;;;;;2048700;28;20502;-95
2021/09/22 01:52:24;;;;;;;11.25;7.95;;;12.30;84.60;;;;;;2049483;28;20043;-95
2021/09/22 01:53:26;;;;;;;10.90;7.72;;;12.30;84.60;;;;;;2057131;28;20133;-94
2021/09/22 01:54:27;;;;;;;9.77;7.30;;;12.40;84.70;;;;;;2056716;28;20456;-95
2021/09/22 01:55:28;;;;;;;10.45;7.78;;;12.30;84.60;;;;;;2057760;28;20134;-95
2021/09/22 01:56:28;;;;;;;10.60;8.25;;;12.30;84.60;;;;;;2057541;28;20051;-96
2021/09/22 01:57:29;;;;;;;9.88;7.68;;;12.30;84.70;;;;;;2048664;29;20040;-95
2021/09/22 01:58:30;;;;;;;11.32;8.45;;;12.30;84.70;;;;;;2041543;28;20074;-94
2021/09/22 01:59:32;;;;;;;10.85;8.02;;;12.30;84.70;;;;;;2050502;28;20616;-95
2021/09/22 02:00:32;;;;;;;10.30;7.47;;;12.30;84.70;;;;;;2056942;28;20070;-95
2021/09/22 02:01:33;;;;;;;10.68;8.15;;;12.30;84.70;;;;;;2060997;28;20141;-95
2021/09/22 02:02:34;;;;;;;12.07;8.18;;;12.30;84.70;;;;;;2056203;28;20134;-95
2021/09/22 02:03:35;;;;;;;11.15;8.40;;;12.30;84.80;;;;;;2034767;29;20039;-95
2021/09/22 02:04:36;;;;;;;10.23;8.23;;;12.30;84.70;;;;;;2040693;29;20103;-96
2021/09/22 02:05:37;;;;;;;10.45;7.72;;;12.30;84.80;;;;;;2044176;28;20047;-94
2021/09/22 02:06:37;;;;;;;10.55;8.50;;;12.30;84.80;;;;;;2059463;28;20034;-95
2021/09/22 02:07:38;;;;;;;9.75;7.65;;;12.30;84.80;;;;;;2055668;28;20053;-94
2021/09/22 02:08:39;;;;;;;10.75;7.97;;;12.30;84.80;;;;;;2064086;28;20158;-94
2021/09/22 02:09:40;;;;;;;11.50;8.68;;;12.30;84.90;;;;;;2058033;28;20070;-94
2021/09/22 02:10:40;;;;;;;10.63;8.70;;;12.30;84.80;;;;;;2048959;28;20409;-95
2021/09/22 02:11:41;;;;;;;10.82;8.18;;;12.30;84.80;;;;;;2049150;28;20051;-94
2021/09/22 02:12:42;;;;;;;11.10;8.43;;;12.30;84.80;;;;;;2049143;28;20132;-95
2021/09/22 02:13:44;;;;;;;11.68;8.18;;;12.30;84.90;;;;;;2049202;28;20417;-95
2021/09/22 02:14:44;;;;;;;11.30;8.50;;;12.30;84.90;;;;;;2065956;28;20129;-95
2021/09/22 02:15:45;;;;;;;11.63;8.35;;;12.20;84.80;;;;;;2065316;28;20454;-96
2021/09/22 02:16:46;;;;;;;11.70;8.45;;;12.30;84.90;;;;;;2056862;28;20489;-95
2021/09/22 02:17:47;;;;;;;12.32;8.73;;;12.20;84.90;;;;;;2048692;28;20039;-95
2021/09/22 02:18:48;;;;;;;11.98;8.68;;;12.20;85.00;;;;;;2049332;28;20127;-95
2021/09/22 02:19:49;;;;;;;11.50;8.75;;;12.20;85.10;;;;;;2049127;28;20043;-95
2021/09/22 02:20:50;;;;;;;11.65;8.63;;;12.20;85.00;;;;;;2056565;28;20069;-95
2021/09/22 02:21:50;;;;;;;11.88;8.55;;;12.20;85.00;;;;;;2056950;28;20457;-95
2021/09/22 02:22:51;;;;;;;12.23;8.85;;;12.20;85.00;;;;;;2058786;28;20592;-95
2021/09/22 02:23:52;;;;;;;11.43;8.70;;;12.20;85.00;;;;;;2047606;29;20214;-95
2021/09/22 02:24:52;;;;;;;11.73;9.10;;;12.20;85.00;;;;;;2043166;28;20094;-95
2021/09/22 02:25:53;;;;;;;11.65;9.02;;;12.20;85.10;;;;;;2065335;28;20045;-95
2021/09/22 02:26:54;;;;;;;12.35;9.23;;;12.20;85.10;;;;;;2048813;28;20040;-94
2021/09/22 02:27:54;;;;;;;11.05;8.70;;;12.20;85.20;;;;;;2041217;29;20043;-94
2021/09/22 02:28:55;;;;;;;10.85;8.60;;;12.20;85.30;;;;;;2056626;28;20082;-95
2021/09/22 02:29:55;;;;;;;12.40;9.60;;;12.20;85.30;;;;;;2048980;29;20035;-95
2021/09/22 02:30:56;;;;;;;12.70;9.23;;;12.20;85.40;;;;;;2035104;29;20551;-95
2021/09/22 02:31:57;;;;;;;13.35;10.00;;;12.20;85.50;;;;;;2024828;29;20037;-95
2021/09/22 02:32:58;;;;;;;11.70;9.32;;;12.20;85.60;;;;;;2048648;28;20046;-95
2021/09/22 02:33:58;;;;;;;12.90;9.80;;;12.20;85.60;;;;;;2060858;28;20479;-95
2021/09/22 02:34:59;;;;;;;12.18;9.18;;;12.20;85.60;;;;;;2056745;28;20094;-94
2021/09/22 02:36:00;;;;;;;11.38;9.05;;;12.20;85.60;;;;;;2052202;28;20031;-94
2021/09/22 02:37:01;;;;;;;12.27;9.38;;;12.20;85.70;;;;;;2053406;28;20464;-96
2021/09/22 02:38:02;;;;;;;13.10;9.75;;;12.20;85.80;;;;;;2048327;28;20035;-95
2021/09/22 02:39:03;;;;;;;12.55;9.85;;;12.20;85.80;;;;;;2040286;29;20388;-95
2021/09/22 02:40:07;;;;;;;11.70;9.07;;;12.20;85.80;;;;;;2043398;28;20127;-95
2021/09/22 02:41:07;;;;;;;11.60;8.50;;;12.20;85.80;;;;;;2057006;28;20053;-96
2021/09/22 02:42:08;;;;;;;11.57;9.27;;;12.20;86.30;;;;;;2056822;28;20046;-94
2021/09/22 02:43:09;;;;;;;11.55;9.00;;;12.20;85.70;;;;;;2048766;28;20152;-95
2021/09/22 02:44:10;;;;;;;12.45;9.30;;;12.20;85.80;;;;;;2048826;28;20122;-94
2021/09/22 02:45:13;;;;;;;12.20;9.38;;;12.20;85.80;;;;;;2056776;28;20058;-95
2021/09/22 02:46:13;;;;;;;12.00;8.82;;;12.20;85.80;;;;;;2051874;28;20042;-94
2021/09/22 02:47:14;;;;;;;12.45;9.73;;;12.20;85.80;;;;;;2049034;29;20152;-94
2021/09/22 02:48:15;;;;;;;13.52;9.70;;;12.20;85.80;;;;;;2046643;28;20084;-96
2021/09/22 02:49:15;;;;;;;12.65;9.50;;;12.20;85.80;;;;;;2056192;28;20039;-95
2021/09/22 02:50:18;;;;;;;13.27;10.13;;;12.20;85.80;;;;;;2059580;28;20039;-96
2021/09/22 02:51:19;;;;;;;11.90;9.32;;;12.20;85.80;;;;;;2061785;28;20402;-95
2021/09/22 02:52:19;;;;;;;12.48;9.38;;;12.20;85.80;;;;;;2056801;28;20073;-95
2021/09/22 02:53:20;;;;;;;12.00;9.38;;;12.20;85.80;;;;;;2048798;28;20035;-94
2021/09/22 02:54:21;;;;;;;13.25;9.45;;;12.20;85.80;;;;;;2060451;28;20074;-95
2021/09/22 02:55:21;;;;;;;12.45;9.57;;;12.20;85.80;;;;;;2052813;28;20598;-95
2021/09/22 02:56:22;;;;;;;12.77;9.52;;;12.20;85.90;;;;;;2046006;28;20057;-95
2021/09/22 02:57:23;;;;;;;12.48;9.45;;;12.20;85.80;;;;;;2053235;28;20035;-94
2021/09/22 02:58:23;;;;;;;12.13;9.15;;;12.10;85.80;;;;;;2056822;28;20046;-94
2021/09/22 02:59:24;;;;;;;12.95;9.23;;;12.20;86.50;;;;;;2055697;28;20035;-94
2021/09/22 03:00:24;;;;;;;12.13;9.63;;;12.10;85.90;;;;;;2049332;28;20949;-94
2021/09/22 03:01:25;;;;;;;12.57;9.65;;;12.10;85.90;;;;;;2053291;28;20038;-95
2021/09/22 03:02:26;;;;;;;12.38;9.38;;;12.10;85.90;;;;;;2056699;28;20082;-94
2021/09/22 03:03:27;;;;;;;13.80;10.07;;;12.20;85.90;;;;;;2048988;28;20526;-94
2021/09/22 03:04:28;;;;;;;12.27;9.93;;;12.10;85.90;;;;;;2048997;28;20119;-95
2021/09/22 03:05:29;;;;;;;12.48;9.93;;;12.10;85.80;;;;;;2041543;29;20127;-95
2021/09/22 03:06:30;;;;;;;12.13;9.35;;;12.10;85.80;;;;;;2050002;28;20121;-95
2021/09/22 03:07:30;;;;;;;12.25;9.40;;;12.10;85.80;;;;;;2057481;28;20544;-95
2021/09/22 03:08:31;;;;;;;14.32;9.98;;;12.10;85.80;;;;;;2054583;28;20062;-95
2021/09/22 03:09:32;;;;;;;12.65;9.23;;;12.10;85.80;;;;;;2054764;28;20493;-95
2021/09/22 03:10:32;;;;;;;12.50;9.57;;;12.10;85.80;;;;;;2050517;28;20043;-95
2021/09/22 03:11:33;;;;;;;12.52;9.25;;;12.10;85.80;;;;;;2046227;29;20112;-95
2021/09/22 03:12:34;;;;;;;11.25;9.13;;;12.10;85.80;;;;;;2041921;29;20131;-94
2021/09/22 03:13:38;;;;;;;12.68;9.57;;;12.10;85.90;;;;;;2056561;28;20042;-94
2021/09/22 03:14:39;;;;;;;12.75;9.38;;;12.10;85.90;;;;;;2066657;28;20038;-95
2021/09/22 03:15:40;;;;;;;12.07;8.68;;;12.00;85.80;;;;;;2066435;28;20053;-95
2021/09/22 03:16:40;;;;;;;12.80;9.77;;;12.00;85.90;;;;;;2058356;28;20041;-95
2021/09/22 03:17:41;;;;;;;13.43;9.63;;;12.00;86.00;;;;;;2049990;28;20107;-95
2021/09/22 03:18:41;;;;;;;12.43;9.32;;;12.00;86.00;;;;;;2054944;28;20094;-95
2021/09/22 03:19:42;;;;;;;12.00;9.10;;;12.00;86.00;;;;;;2059414;28;20137;-95
2021/09/22 03:20:43;;;;;;;13.25;9.77;;;12.00;86.60;;;;;;2055876;28;20086;-95
2021/09/22 03:21:43;;;;;;;12.13;9.18;;;12.00;86.10;;;;;;2057758;28;20043;-95
2021/09/22 03:22:44;;;;;;;13.93;9.82;;;11.90;86.10;;;;;;2050084;28;20043;-95
2021/09/22 03:23:45;;;;;;;13.13;9.80;;;11.90;86.10;;;;;;2057932;28;20529;-95
2021/09/22 03:24:46;;;;;;;12.77;9.52;;;11.90;86.20;;;;;;2057759;28;20067;-95
2021/09/22 03:25:46;;;;;;;12.57;9.70;;;11.90;86.20;;;;;;2050229;28;20062;-95
2021/09/22 03:26:49;;;;;;;12.57;9.80;;;11.90;86.20;;;;;;2063202;28;20122;-95
2021/09/22 03:27:50;;;;;;;12.88;10.07;;;11.90;86.20;;;;;;2051950;28;20031;-94
2021/09/22 03:28:51;;;;;;;12.60;9.88;;;11.90;86.20;;;;;;2034815;29;20041;-95
2021/09/22 03:29:51;;;;;;;14.27;10.15;;;11.90;86.30;;;;;;2042019;29;20043;-95
2021/09/22 03:30:52;;;;;;;13.50;10.35;;;11.90;86.20;;;;;;2057473;28;20130;-94
2021/09/22 03:31:53;;;;;;;14.02;10.60;;;11.90;86.20;;;;;;2060854;28;20061;-95
2021/09/22 03:32:53;;;;;;;12.70;10.13;;;11.90;86.20;;;;;;2060832;28;20461;-96
2021/09/22 03:33:54;;;;;;;13.02;10.18;;;11.90;86.10;;;;;;2058323;28;20039;-95
2021/09/22 03:34:54;;;;;;;15.25;10.35;;;11.90;86.10;;;;;;2042363;29;20036;-95
2021/09/22 03:35:55;;;;;;;12.73;9.45;;;11.90;86.10;;;;;;2058144;28;20070;-95
2021/09/22 03:36:56;;;;;;;13.98;9.57;;;11.90;86.20;;;;;;2076098;28;20029;-94
2021/09/22 03:37:57;;;;;;;13.05;9.50;;;11.90;86.20;;;;;;2068146;28;20082;-90
2021/09/22 03:38:57;;;;;;;14.20;10.40;;;11.80;86.20;;;;;;2068319;28;20034;-95
2021/09/22 03:39:58;;;;;;;14.13;10.27;;;11.80;86.20;;;;;;2059213;28;20027;-95
2021/09/22 03:40:59;;;;;;;15.40;10.75;;;11.80;86.20;;;;;;2047150;29;20035;-95
2021/09/22 03:42:00;;;;;;;14.48;10.88;;;11.80;86.30;;;;;;2053063;28;20032;-95
2021/09/22 03:43:01;;;;;;;13.43;9.73;;;11.80;86.30;;;;;;2057961;28;20031;-96
2021/09/22 03:44:02;;;;;;;13.02;10.02;;;11.80;86.40;;;;;;2056268;28;20039;-95
2021/09/22 03:45:03;;;;;;;14.18;10.68;;;11.80;86.30;;;;;;2062961;28;20054;-94
2021/09/22 03:46:05;;;;;;;13.82;10.25;;;11.80;86.30;;;;;;2066289;28;20042;-92
2021/09/22 03:47:05;;;;;;;14.10;10.52;;;11.80;86.40;;;;;;2051844;28;20039;-95
2021/09/22 03:48:06;;;;;;;13.40;10.30;;;11.80;86.40;;;;;;2057886;28;20126;-95
2021/09/22 03:49:07;;;;;;;14.23;10.60;;;11.80;86.80;;;;;;2057968;28;20035;-94
2021/09/22 03:50:08;;;;;;;13.25;10.13;;;11.80;86.40;;;;;;2042068;29;20099;-95
2021/09/22 03:51:09;;;;;;;13.38;10.15;;;11.80;86.40;;;;;;2033992;29;20443;-95
2021/09/22 03:52:09;;;;;;;15.48;11.13;;;11.80;86.40;;;;;;2049730;29;20043;-94
2021/09/22 03:53:10;;;;;;;13.00;9.90;;;11.80;86.40;;;;;;2065160;28;20038;-95
2021/09/22 03:54:11;;;;;;;13.15;10.00;;;11.80;86.40;;;;;;2049854;29;20521;-95
2021/09/22 03:55:12;;;;;;;14.52;11.15;;;11.80;86.40;;;;;;2052026;28;20039;-95
2021/09/22 03:56:12;;;;;;;14.45;11.20;;;11.80;86.50;;;;;;2053238;28;20061;-95
2021/09/22 03:57:13;;;;;;;14.95;10.90;;;11.80;86.50;;;;;;2054733;28;20066;-95
2021/09/22 03:58:15;;;;;;;14.02;10.90;;;11.80;86.50;;;;;;2062505;28;20046;-95
2021/09/22 03:59:16;;;;;;;15.40;11.05;;;11.80;86.50;;;;;;2055546;28;20063;-95
2021/09/22 04:00:17;;;;;;;14.85;11.07;;;11.80;86.50;;;;;;2071784;28;20039;-95
2021/09/22 04:01:18;;;;;;;14.13;10.38;;;11.70;86.40;;;;;;2065621;28;20042;-96
2021/09/22 04:02:20;;;;;;;13.00;10.02;;;11.70;86.40;;;;;;2057605;28;20043;-95
2021/09/22 04:03:21;;;;;;;14.48;10.98;;;11.70;86.40;;;;;;2065269;28;20030;-95
2021/09/22 04:04:22;;;;;;;14.70;10.65;;;11.80;86.50;;;;;;2058340;28;20113;-95
2021/09/22 04:05:23;;;;;;;13.98;10.70;;;11.70;86.40;;;;;;2049027;28;20050;-95
2021/09/22 04:06:23;;;;;;;15.35;10.80;;;11.70;86.50;;;;;;2057426;28;20046;-95
2021/09/22 04:07:24;;;;;;;14.40;11.20;;;11.70;86.50;;;;;;2065848;28;20437;-95
2021/09/22 04:08:25;;;;;;;14.90;11.02;;;11.70;87.10;;;;;;2057828;28;20050;-94
2021/09/22 04:09:26;;;;;;;14.35;11.02;;;11.80;86.50;;;;;;2049738;29;20502;-95
2021/09/22 04:10:27;;;;;;;15.30;11.40;;;11.80;86.50;;;;;;2053698;28;20481;-95
2021/09/22 04:11:28;;;;;;;15.07;11.00;;;11.80;86.50;;;;;;2057579;28;20039;-94
2021/09/22 04:12:28;;;;;;;15.20;11.13;;;11.80;86.50;;;;;;2042754;28;20490;-95
2021/09/22 04:13:29;;;;;;;14.98;11.27;;;11.70;86.50;;;;;;2043655;29;20068;-95
2021/09/22 04:14:30;;;;;;;16.48;11.45;;;11.70;86.50;;;;;;2037018;29;20044;-94
2021/09/22 04:15:31;;;;;;;15.63;11.25;;;11.70;86.50;;;;;;2059819;28;20054;-89
2021/09/22 04:16:31;;;;;;;14.98;10.75;;;11.70;86.50;;;;;;2059590;28;20050;-89
2021/09/22 04:17:32;;;;;;;15.15;11.70;;;11.70;86.50;;;;;;2057682;28;20493;-94
2021/09/22 04:18:33;;;;;;;14.25;10.68;;;11.80;86.60;;;;;;2064812;28;20093;-95
2021/09/22 04:19:34;;;;;;;15.07;11.20;;;11.70;86.50;;;;;;2049618;28;20122;-93
2021/09/22 04:20:35;;;;;;;15.43;10.85;;;11.70;86.50;;;;;;2050052;28;20134;-95
2021/09/22 04:21:35;;;;;;;15.40;10.88;;;11.70;86.50;;;;;;2049699;28;20039;-94
2021/09/22 04:22:39;;;;;;;14.82;11.20;;;11.70;86.50;;;;;;2064995;28;20476;-95
2021/09/22 04:23:39;;;;;;;14.57;11.02;;;11.70;86.50;;;;;;2064926;28;20042;-96
2021/09/22 04:24:40;;;;;;;15.02;11.00;;;11.70;86.60;;;;;;2057472;28;20039;-94
2021/09/22 04:25:40;;;;;;;13.60;10.95;;;11.70;86.60;;;;;;2065506;28;20038;-95
2021/09/22 04:26:41;;;;;;;16.27;11.52;;;11.70;86.60;;;;;;2056600;28;20406;-94
2021/09/22 04:27:42;;;;;;;15.02;11.35;;;11.70;86.60;;;;;;2041702;28;20044;-95
2021/09/22 04:28:42;;;;;;;14.80;11.13;;;11.60;86.60;;;;;;2057628;28;20046;-96
2021/09/22 04:29:43;;;;;;;15.80;11.45;;;11.70;86.70;;;;;;2065371;28;20035;-94
2021/09/22 04:30:44;;;;;;;15.40;11.23;;;11.70;86.70;;;;;;2049642;28;20070;-94
2021/09/22 04:31:44;;;;;;;15.85;11.45;;;11.70;86.70;;;;;;2054442;28;20035;-94
2021/09/22 04:32:45;;;;;;;15.38;11.32;;;11.60;86.70;;;;;;2065559;28;20054;-94
2021/09/22 04:33:46;;;;;;;15.95;11.38;;;11.70;86.70;;;;;;2065777;28;20049;-94
2021/09/22 04:34:46;;;;;;;15.23;11.32;;;11.60;86.70;;;;;;2061674;28;20082;-93
2021/09/22 04:35:47;;;;;;;15.43;11.95;;;11.60;86.70;;;;;;2058723;28;20038;-93
2021/09/22 04:36:48;;;;;;;15.80;11.75;;;11.60;86.70;;;;;;2059473;28;20134;-93
2021/09/22 04:37:49;;;;;;;17.27;11.82;;;11.60;86.80;;;;;;2071442;28;20034;-94
2021/09/22 04:38:50;;;;;;;16.35;11.65;;;11.60;86.80;;;;;;2068712;28;20505;-96
2021/09/22 04:39:52;;;;;;;15.85;11.57;;;11.60;86.80;;;;;;2065265;28;20030;-94
2021/09/22 04:40:53;;;;;;;15.63;11.57;;;11.60;86.90;;;;;;2058104;28;20117;-94
2021/09/22 04:41:53;;;;;;;16.52;11.82;;;11.60;86.90;;;;;;2060447;28;20086;-93
2021/09/22 04:42:55;;;;;;;16.20;11.90;;;11.60;86.90;;;;;;2062471;28;20137;-91
2021/09/22 04:43:55;;;;;;;16.23;11.88;;;11.60;86.90;;;;;;2072282;28;20041;-94
2021/09/22 04:44:56;;;;;;;16.77;12.27;;;11.60;86.90;;;;;;2054747;28;20039;-94
2021/09/22 04:45:57;;;;;;;16.67;12.15;;;11.60;86.90;;;;;;2049049;28;20070;-93
2021/09/22 04:46:58;;;;;;;16.85;11.85;;;11.60;87.00;;;;;;2057133;28;20077;-93
2021/09/22 04:48:00;;;;;;;17.08;12.45;;;11.60;87.00;;;;;;2049835;28;20066;-93
2021/09/22 04:49:00;;;;;;;15.68;11.45;;;11.60;87.00;;;;;;2066112;28;20038;-94
2021/09/22 04:50:04;;;;;;;17.27;12.18;;;11.60;87.00;;;;;;2057569;28;20129;-94
2021/09/22 04:51:05;;;;;;;17.10;11.82;;;11.60;87.00;;;;;;2058282;28;20034;-93
2021/09/22 04:52:05;;;;;;;16.30;12.45;;;11.60;87.00;;;;;;2073992;28;20046;-93
2021/09/22 04:53:06;;;;;;;16.52;11.95;;;11.60;87.00;;;;;;2065158;28;20030;-95
2021/09/22 04:54:07;;;;;;;17.05;12.23;;;11.50;87.00;;;;;;2049183;29;20095;-95
2021/09/22 04:55:08;;;;;;;16.17;11.48;;;11.50;87.00;;;;;;2055718;28;20122;-93
2021/09/22 04:56:08;;;;;;;16.85;12.60;;;11.50;86.90;;;;;;2056384;28;20046;-95
2021/09/22 04:57:09;;;;;;;15.45;12.10;;;11.50;86.90;;;;;;2039693;29;20039;-94
2021/09/22 04:58:10;;;;;;;16.80;12.27;;;11.50;86.90;;;;;;2056744;28;20042;-92
2021/09/22 04:59:10;;;;;;;16.25;11.75;;;11.50;86.90;;;;;;2054582;28;20054;-93
2021/09/22 05:00:12;;;;;;;17.45;12.32;;;11.50;87.00;;;;;;2048120;28;20039;-94
2021/09/22 05:01:12;;;;;;;15.93;11.55;;;11.50;87.00;;;;;;2049032;28;20418;-94
2021/09/22 05:02:13;;;;;;;16.40;11.88;;;11.50;87.10;;;;;;2056473;28;20098;-94
2021/09/22 05:03:15;;;;;;;17.55;12.63;;;11.50;87.10;;;;;;2053277;28;20031;-94
2021/09/22 05:04:17;;;;;;;17.58;11.93;;;11.50;87.10;;;;;;2048949;28;20494;-94
2021/09/22 05:05:18;;;;;;;17.15;12.07;;;11.50;87.20;;;;;;2045172;28;20064;-94
2021/09/22 05:06:18;;;;;;;17.42;12.60;;;11.50;87.20;;;;;;2049287;28;20031;-93
2021/09/22 05:07:19;;;;;;;15.68;11.55;;;11.50;87.20;;;;;;2041424;29;20043;-95
2021/09/22 05:08:20;;;;;;;16.67;11.10;;;11.50;87.20;;;;;;2041696;29;20046;-94
2021/09/22 05:09:20;;;;;;;14.88;11.13;;;11.50;87.20;;;;;;2052200;28;20474;-94
2021/09/22 05:10:21;;;;;;;16.13;12.00;;;11.50;87.20;;;;;;2048308;28;20039;-94
2021/09/22 05:11:24;;;;;;;16.40;11.35;;;11.50;87.20;;;;;;2057039;28;20031;-95
2021/09/22 05:12:25;;;;;;;15.95;11.10;;;11.50;87.80;;;;;;2051938;28;20039;-89
2021/09/22 05:13:25;;;;;;;15.55;11.80;;;11.50;87.20;;;;;;2056703;28;20066;-94